Aérodrome :
LOGIN :

S'inscrire | Disclaimer

   EN    FR    IT 

 










Légende :    VFR   VFR Marginal   IFR   IFR Intensif   IFR Très Intensif
Visi : 
Plafond : 
>= 8 km
>= 3000ft
5 à 8 km
1000 à 3000 ft
1500m à 5 km
500 à 1000 ft
800 à 1500m
200 à 500 ft
< 800m
< 200 ft
Symboles :   Orages  Brouillard  Fortes neiges  Fortes précipitations  Vent > 20 kt
SIGMETs :   Divers  Orages  Givrage  Turbulence  Onde Orograph.  Cendres Volcan.






- Altitude de l'aérodrome : 1521 ft
- Code IATA : NCY


LFLP - Annecy

DERNIER METAR :
  • 021300Z AUTO 02003KT 9999 OVC029 03/00 Q1011 NOSIG

METARs EXPIRÉS :
  • 021230Z AUTO 36005KT 330V030 9999 BKN025 OVC031 03/00 Q1011 NOSIG
  • 021200Z AUTO 36005KT 9999 BKN024 OVC029 03/00 Q1011 NOSIG
  • 021130Z AUTO 01004KT 9999 OVC026 03/00 Q1011 NOSIG
  • 021100Z AUTO 36003KT 320V040 9999 BKN022 OVC027 03/01 Q1011 NOSIG
  • 021030Z AUTO 24001KT 9999 OVC022 03/01 Q1012 NOSIG
  • 021000Z AUTO 23002KT 9999 BKN021 OVC028 02/02 Q1012 NOSIG

TAF TAF LFLP
Valide du 02 à 09h jusqu'au 03 à 09h UTC


020800Z 0209/0309 VRB03KT 9999 BKN033
TEMPO 0213/0218 CAVOK
TEMPO 0222/0307 BKN013
PROB40
TEMPO 0222/0303 3000 RADZ
BECMG 0306/0309 CAVOK



MET'MAP, la Météo Aéronautique d'un coup d'oeil ! - Copyright ORBIFLY Décembre 2007 - Disclaimer

ORBIFLY MET'MAP TEAM :

Programmation & Développement : Alexandra Zaïnal
Sur une idée originale de : Baudouin d'Aumeries
Assistance à la programmation : Marc-Olivier Méhu
Soutien technique & logistique : Manuel Goepfert

Contact : metmap@orbifly.com




SOURCES & CREDITS :

   NOAA